createdAt,value
2024-02-01T00:00:15.499Z,100684.44
2024-02-01T00:00:47.893Z,100681.78
2024-02-01T00:01:19.773Z,100688.78
2024-02-01T00:01:51.707Z,100685.22
2024-02-01T00:02:23.737Z,100678.28
2024-02-01T00:02:55.676Z,100685.28
2024-02-01T00:03:27.705Z,100692.28
2024-02-01T00:03:59.606Z,100692.31
2024-02-01T00:04:32.390Z,100686.19
2024-02-01T00:05:05.094Z,100676.56
2024-02-01T00:05:37.440Z,100691.47
2024-02-01T00:06:09.467Z,100680.09
2024-02-01T00:06:43.105Z,100683.56
2024-02-01T00:07:15.101Z,100685.31
2024-02-01T00:07:47.042Z,100681.84
2024-02-01T00:08:18.995Z,100687.97
2024-02-01T00:08:50.966Z,100686.19
2024-02-01T00:09:23.054Z,100685.34
2024-02-01T00:09:54.923Z,100685.38
2024-02-01T00:10:26.906Z,100688.88
2024-02-01T00:11:00.360Z,100687.13
2024-02-01T00:11:32.399Z,100686.22
2024-02-01T00:12:05.045Z,100687.13
2024-02-01T00:12:37.001Z,100687.13
2024-02-01T00:13:09.085Z,100679.25
2024-02-01T00:13:41.032Z,100676.63
2024-02-01T00:14:13.027Z,100680.16
2024-02-01T00:14:45.160Z,100686.25
2024-02-01T00:15:17.151Z,100684.50
2024-02-01T00:15:49.227Z,100674.88
2024-02-01T00:16:22.664Z,100681.03
2024-02-01T00:16:54.970Z,100671.41
2024-02-01T00:17:26.977Z,100664.44
2024-02-01T00:17:59.492Z,100677.50
2024-02-01T00:18:31.582Z,100676.63
2024-02-01T00:19:03.764Z,100674.00
2024-02-01T00:19:35.976Z,100671.41
2024-02-01T00:20:08.855Z,100675.75
2024-02-01T00:20:40.889Z,100674.00
2024-02-01T00:21:12.886Z,100669.66
2024-02-01T00:21:44.924Z,100674.91
2024-02-01T00:22:27.715Z,100673.13
2024-02-01T00:23:05.562Z,100667.06
2024-02-01T00:23:37.525Z,100671.41
2024-02-01T00:24:10.330Z,100668.78
2024-02-01T00:24:42.314Z,100667.03
2024-02-01T00:25:14.305Z,100666.19
2024-02-01T00:25:46.312Z,100668.78
2024-02-01T00:26:18.299Z,100674.88
2024-02-01T00:26:50.255Z,100667.91
2024-02-01T00:27:22.277Z,100667.03
2024-02-01T00:27:54.305Z,100662.66
2024-02-01T00:28:26.248Z,100668.78
2024-02-01T00:28:58.375Z,100667.91
2024-02-01T00:29:30.322Z,100667.91
2024-02-01T00:30:03.599Z,100663.53
2024-02-01T00:30:35.590Z,100666.16
2024-02-01T00:31:07.505Z,100667.00
2024-02-01T00:31:39.447Z,100660.03
2024-02-01T00:32:11.412Z,100661.78
2024-02-01T00:32:43.432Z,100660.00
2024-02-01T00:33:15.661Z,100660.91
2024-02-01T00:33:47.859Z,100661.78
2024-02-01T00:34:19.936Z,100660.00
2024-02-01T00:34:52.012Z,100653.03
2024-02-01T00:35:23.978Z,100653.91
2024-02-01T00:35:56.062Z,100656.50
2024-02-01T00:36:28.054Z,100656.53
2024-02-01T00:37:00.367Z,100646.91
2024-02-01T00:37:32.810Z,100652.13
2024-02-01T00:38:04.857Z,100651.25
2024-02-01T00:38:36.961Z,100656.50
2024-02-01T00:39:08.979Z,100659.16
2024-02-01T00:39:41.028Z,100660.91
2024-02-01T00:40:13.238Z,100655.66
2024-02-01T00:40:45.226Z,100657.41
2024-02-01T00:41:17.163Z,100658.28
2024-02-01T00:41:49.221Z,100656.50
2024-02-01T00:42:21.472Z,100657.41
2024-02-01T00:42:53.468Z,100656.50
2024-02-01T00:43:25.516Z,100654.75
2024-02-01T00:43:57.558Z,100656.50
2024-02-01T00:44:29.597Z,100657.41
2024-02-01T00:45:01.605Z,100654.78
2024-02-01T00:45:33.521Z,100653.91
2024-02-01T00:46:05.476Z,100650.44
2024-02-01T00:46:37.493Z,100654.78
2024-02-01T00:47:09.520Z,100640.78
2024-02-01T00:47:41.632Z,100646.91
2024-02-01T00:48:13.828Z,100654.75
2024-02-01T00:48:45.968Z,100650.41
2024-02-01T00:49:18.118Z,100647.81
2024-02-01T00:49:50.091Z,100649.53
2024-02-01T00:50:21.978Z,100656.53
2024-02-01T00:50:54.123Z,100646.06
2024-02-01T00:51:26.443Z,100656.56
2024-02-01T00:51:59.394Z,100646.03
2024-02-01T00:52:31.482Z,100656.56
2024-02-01T00:53:03.491Z,100651.31
2024-02-01T00:53:35.688Z,100645.19
2024-02-01T00:54:07.684Z,100646.06
2024-02-01T00:54:39.704Z,100647.81
2024-02-01T00:55:11.640Z,100644.31
2024-02-01T00:55:43.707Z,100646.94
2024-02-01T00:56:15.635Z,100654.81
2024-02-01T00:56:47.564Z,100646.94
2024-02-01T00:57:19.700Z,100641.69
2024-02-01T00:57:51.818Z,100645.19
2024-02-01T00:58:23.794Z,100646.94
2024-02-01T00:58:55.691Z,100645.19
2024-02-01T00:59:29.294Z,100639.97
2024-02-01T01:00:01.327Z,100644.34
2024-02-01T01:00:33.715Z,100639.06
2024-02-01T01:01:05.986Z,100642.56
2024-02-01T01:01:37.978Z,100645.19
2024-02-01T01:02:09.971Z,100636.47
2024-02-01T01:02:41.853Z,100639.94
2024-02-01T01:03:15.612Z,100630.34
2024-02-01T01:03:47.829Z,100638.19
2024-02-01T01:04:19.830Z,100638.19
2024-02-01T01:04:51.896Z,100632.06
2024-02-01T01:05:24.095Z,100628.56
2024-02-01T01:05:56.077Z,100632.03
2024-02-01T01:06:29.243Z,100625.97
2024-02-01T01:07:01.325Z,100634.69
2024-02-01T01:07:33.337Z,100634.69
2024-02-01T01:08:05.899Z,100633.81
2024-02-01T01:08:37.837Z,100640.78
2024-02-01T01:09:10.695Z,100638.16
2024-02-01T01:09:42.688Z,100639.94
2024-02-01T01:10:14.703Z,100639.91
2024-02-01T01:10:47.233Z,100635.56
2024-02-01T01:11:19.138Z,100638.19
2024-02-01T01:11:51.190Z,100640.81
2024-02-01T01:12:23.181Z,100641.66
2024-02-01T01:12:55.812Z,100638.16
2024-02-01T01:13:27.983Z,100641.66
2024-02-01T01:13:59.912Z,100636.41
2024-02-01T01:14:32.106Z,100632.03
2024-02-01T01:15:04.383Z,100625.94
2024-02-01T01:15:36.339Z,100628.56
2024-02-01T01:16:08.293Z,100625.03
2024-02-01T01:16:40.251Z,100623.31
2024-02-01T01:17:12.134Z,100621.53
2024-02-01T01:17:44.301Z,100632.91
2024-02-01T01:18:17.092Z,100628.53
2024-02-01T01:18:49.267Z,100624.16
2024-02-01T01:19:21.538Z,100626.75
2024-02-01T01:19:55.559Z,100625.88
2024-02-01T01:20:27.554Z,100628.50
2024-02-01T01:20:59.716Z,100619.75
2024-02-01T01:21:31.663Z,100623.22
2024-02-01T01:22:04.065Z,100624.97
2024-02-01T01:22:36.740Z,100630.22
2024-02-01T01:23:08.687Z,100628.44
2024-02-01T01:23:40.742Z,100624.94
2024-02-01T01:24:13.667Z,100627.56
2024-02-01T01:24:45.774Z,100624.06
2024-02-01T01:25:17.926Z,100623.19
2024-02-01T01:25:50.039Z,100624.91
2024-02-01T01:26:23.874Z,100621.41
2024-02-01T01:26:55.886Z,100620.53
2024-02-01T01:27:27.976Z,100618.75
2024-02-01T01:27:59.905Z,100618.75
2024-02-01T01:28:31.944Z,100614.38
2024-02-01T01:29:04.104Z,100616.13
2024-02-01T01:29:36.094Z,100616.09
2024-02-01T01:30:08.848Z,100618.75
2024-02-01T01:30:40.888Z,100609.09
2024-02-01T01:31:13.108Z,100610.84
2024-02-01T01:31:45.267Z,100609.94
2024-02-01T01:32:17.353Z,100608.19
2024-02-01T01:32:49.488Z,100602.94
2024-02-01T01:33:21.609Z,100603.81
2024-02-01T01:33:54.043Z,100609.13
2024-02-01T01:34:26.040Z,100600.41
2024-02-01T01:34:58.223Z,100597.84
2024-02-01T01:35:30.169Z,100597.00
2024-02-01T01:36:02.086Z,100590.06
2024-02-01T01:36:33.978Z,100594.41
2024-02-01T01:37:05.882Z,100596.19
2024-02-01T01:37:38.376Z,100590.06
2024-02-01T01:38:10.367Z,100589.22
2024-02-01T01:38:42.427Z,100592.69
2024-02-01T01:39:14.381Z,100587.47
2024-02-01T01:39:46.307Z,100583.06
2024-02-01T01:40:18.282Z,100587.47
2024-02-01T01:40:50.273Z,100586.59
2024-02-01T01:41:22.592Z,100589.22
2024-02-01T01:41:54.617Z,100587.50
2024-02-01T01:42:26.685Z,100584.00
2024-02-01T01:42:58.689Z,100588.38
2024-02-01T01:43:30.618Z,100583.16
2024-02-01T01:44:03.905Z,100586.63
2024-02-01T01:44:36.038Z,100588.41
2024-02-01T01:45:08.384Z,100584.03
2024-02-01T01:45:40.576Z,100585.75
2024-02-01T01:46:13.496Z,100584.91
2024-02-01T01:46:45.631Z,100585.78
2024-02-01T01:47:17.864Z,100587.56
2024-02-01T01:47:50.181Z,100579.69
2024-02-01T01:48:22.212Z,100584.06
2024-02-01T01:48:54.718Z,100582.34
2024-02-01T01:49:27.007Z,100583.19
2024-02-01T01:49:59.193Z,100585.81
2024-02-01T01:50:31.424Z,100584.06
2024-02-01T01:51:04.649Z,100579.75
2024-02-01T01:51:38.366Z,100585.84
2024-02-01T01:52:14.468Z,100582.34
2024-02-01T01:52:49.547Z,100575.38
2024-02-01T01:53:23.264Z,100572.75
2024-02-01T01:53:57.648Z,100576.22
2024-02-01T01:54:33.295Z,100577.97
2024-02-01T01:55:09.112Z,100576.22
2024-02-01T01:55:41.036Z,100577.97
2024-02-01T01:56:14.461Z,100576.22
2024-02-01T01:56:48.042Z,100573.66
2024-02-01T01:57:20.762Z,100571.91
2024-02-01T01:57:54.024Z,100576.28
2024-02-01T01:58:34.806Z,100575.38
2024-02-01T01:59:08.496Z,100578.00
2024-02-01T01:59:40.653Z,100567.53
2024-02-01T02:00:14.047Z,100572.78
2024-02-01T02:00:46.314Z,100567.50
2024-02-01T02:01:19.362Z,100568.38
2024-02-01T02:01:53.740Z,100564.91
2024-02-01T02:02:29.020Z,100569.28
2024-02-01T02:03:01.113Z,100568.38
2024-02-01T02:03:37.807Z,100570.16
2024-02-01T02:04:10.669Z,100576.25
2024-02-01T02:04:43.439Z,100571.03
2024-02-01T02:05:15.556Z,100568.38
2024-02-01T02:05:47.680Z,100572.78
2024-02-01T02:06:19.923Z,100564.03
2024-02-01T02:06:57.277Z,100566.63
2024-02-01T02:07:30.169Z,100568.38
2024-02-01T02:08:02.319Z,100570.13
2024-02-01T02:08:34.531Z,100564.00
2024-02-01T02:09:13.893Z,100568.38
2024-02-01T02:09:46.284Z,100566.66
2024-02-01T02:10:18.651Z,100565.78
2024-02-01T02:10:52.789Z,100570.13
2024-02-01T02:11:25.195Z,100568.38
2024-02-01T02:11:57.176Z,100565.75
2024-02-01T02:12:29.454Z,100560.53
2024-02-01T02:13:01.474Z,100557.91
2024-02-01T02:13:33.525Z,100558.75
2024-02-01T02:14:11.039Z,100558.75
2024-02-01T02:14:42.984Z,100565.75
2024-02-01T02:15:17.603Z,100550.03
2024-02-01T02:15:49.857Z,100555.28
2024-02-01T02:16:21.837Z,100559.66
2024-02-01T02:16:54.195Z,100567.50
2024-02-01T02:17:29.949Z,100556.16
2024-02-01T02:18:02.047Z,100554.41
2024-02-01T02:18:34.434Z,100559.66
2024-02-01T02:19:10.766Z,100556.16
2024-02-01T02:19:43.188Z,100565.78
2024-02-01T02:20:18.820Z,100561.41
2024-02-01T02:20:53.083Z,100565.75
2024-02-01T02:21:25.785Z,100558.78
2024-02-01T02:21:59.436Z,100555.28
2024-02-01T02:22:32.814Z,100562.28
2024-02-01T02:23:05.875Z,100559.66
2024-02-01T02:23:38.238Z,100564.03
2024-02-01T02:24:11.374Z,100564.03
2024-02-01T02:24:43.452Z,100561.41
2024-02-01T02:25:15.886Z,100563.16
2024-02-01T02:25:49.705Z,100559.66
2024-02-01T02:26:22.010Z,100558.75
2024-02-01T02:26:53.935Z,100563.13
2024-02-01T02:27:25.872Z,100551.78
2024-02-01T02:27:57.813Z,100558.81
2024-02-01T02:28:36.959Z,100556.16
2024-02-01T02:29:09.463Z,100555.31
2024-02-01T02:29:41.425Z,100554.41
2024-02-01T02:30:13.780Z,100557.03
2024-02-01T02:30:45.867Z,100555.28
2024-02-01T02:31:17.842Z,100559.66
2024-02-01T02:31:49.784Z,100557.91
2024-02-01T02:32:22.793Z,100558.81
2024-02-01T02:32:54.933Z,100564.03
2024-02-01T02:33:27.133Z,100555.31
2024-02-01T02:34:00.443Z,100555.28
2024-02-01T02:34:32.436Z,100555.31
2024-02-01T02:35:04.838Z,100560.53
2024-02-01T02:35:36.833Z,100552.69
2024-02-01T02:36:11.272Z,100553.56
2024-02-01T02:36:43.399Z,100552.66
2024-02-01T02:37:15.639Z,100547.44
2024-02-01T02:37:48.431Z,100550.06
2024-02-01T02:38:20.752Z,100547.41
2024-02-01T02:38:53.077Z,100553.53
2024-02-01T02:39:25.080Z,100546.53
2024-02-01T02:39:56.998Z,100544.81
2024-02-01T02:40:29.044Z,100544.81
2024-02-01T02:41:01.150Z,100543.06
2024-02-01T02:41:33.623Z,100548.28
2024-02-01T02:42:06.023Z,100537.81
2024-02-01T02:42:37.931Z,100531.72
2024-02-01T02:43:10.232Z,100538.69
2024-02-01T02:43:42.162Z,100536.06
2024-02-01T02:44:14.886Z,100541.28
2024-02-01T02:44:46.824Z,100543.94
2024-02-01T02:45:19.513Z,100539.56
2024-02-01T02:45:51.629Z,100544.81
2024-02-01T02:46:26.583Z,100547.41
2024-02-01T02:46:58.792Z,100549.16
2024-02-01T02:47:30.783Z,100546.56
2024-02-01T02:48:06.634Z,100548.31
2024-02-01T02:48:42.211Z,100541.34
2024-02-01T02:49:14.925Z,100544.81
2024-02-01T02:49:47.027Z,100544.84
2024-02-01T02:50:19.176Z,100542.19
2024-02-01T02:50:51.290Z,100544.81
2024-02-01T02:51:23.471Z,100543.94
2024-02-01T02:51:55.437Z,100540.47
2024-02-01T02:52:27.556Z,100546.56
2024-02-01T02:52:59.677Z,100543.94
2024-02-01T02:53:31.858Z,100550.94
2024-02-01T02:54:04.411Z,100540.47
2024-02-01T02:54:36.439Z,100536.97
2024-02-01T02:55:08.952Z,100540.47
2024-02-01T02:55:40.865Z,100540.47
2024-02-01T02:56:12.744Z,100541.34
2024-02-01T02:56:44.777Z,100536.97
2024-02-01T02:57:16.883Z,100541.34
2024-02-01T02:57:48.972Z,100545.72
2024-02-01T02:58:20.891Z,100539.59
2024-02-01T02:58:52.975Z,100538.72
2024-02-01T02:59:24.898Z,100536.97
2024-02-01T02:59:56.818Z,100541.34
2024-02-01T03:00:28.709Z,100533.47
2024-02-01T03:01:00.740Z,100538.72
2024-02-01T03:01:33.393Z,100531.72
2024-02-01T03:02:08.230Z,100523.88
2024-02-01T03:02:40.432Z,100532.59
2024-02-01T03:03:12.932Z,100534.38
2024-02-01T03:03:45.111Z,100528.22
2024-02-01T03:04:17.244Z,100536.97
2024-02-01T03:04:49.391Z,100532.63
2024-02-01T03:05:21.245Z,100531.75
2024-02-01T03:05:53.462Z,100524.75
2024-02-01T03:06:25.800Z,100527.38
2024-02-01T03:06:57.807Z,100513.41
2024-02-01T03:07:29.748Z,100517.75
2024-02-01T03:08:06.166Z,100514.28
2024-02-01T03:08:45.044Z,100513.38
2024-02-01T03:09:18.453Z,100515.16
2024-02-01T03:09:50.837Z,100517.75
2024-02-01T03:10:23.350Z,100516.00
2024-02-01T03:10:55.278Z,100511.63
2024-02-01T03:11:27.207Z,100515.97
2024-02-01T03:11:59.233Z,100519.47
2024-02-01T03:12:31.316Z,100514.22
2024-02-01T03:13:03.255Z,100511.63
2024-02-01T03:13:36.304Z,100509.88
2024-02-01T03:14:12.517Z,100514.25
2024-02-01T03:14:45.180Z,100508.13
2024-02-01T03:15:17.347Z,100504.69
2024-02-01T03:15:49.441Z,100504.63
2024-02-01T03:16:24.266Z,100498.53
2024-02-01T03:16:56.193Z,100502.88
2024-02-01T03:17:28.448Z,100503.75
2024-02-01T03:18:00.520Z,100506.38
2024-02-01T03:18:32.962Z,100499.38
2024-02-01T03:19:05.282Z,100498.47
2024-02-01T03:19:39.901Z,100511.56
2024-02-01T03:20:24.139Z,100504.63
2024-02-01T03:20:57.392Z,100502.00
2024-02-01T03:21:29.802Z,100495.91
2024-02-01T03:22:01.857Z,100495.91
2024-02-01T03:22:36.757Z,100495.94
2024-02-01T03:23:08.684Z,100494.19
2024-02-01T03:23:45.580Z,100494.19
2024-02-01T03:24:17.639Z,100488.06
2024-02-01T03:25:00.137Z,100491.56
2024-02-01T03:25:34.036Z,100486.31
2024-02-01T03:26:05.996Z,100488.06
2024-02-01T03:26:38.633Z,100490.69
2024-02-01T03:27:13.639Z,100486.31
2024-02-01T03:27:45.638Z,100492.44
2024-02-01T03:28:17.520Z,100488.06
2024-02-01T03:28:49.884Z,100497.69
2024-02-01T03:29:22.684Z,100492.47
2024-02-01T03:29:54.668Z,100489.84
2024-02-01T03:30:26.741Z,100486.34
2024-02-01T03:30:58.676Z,100488.97
2024-02-01T03:31:34.840Z,100497.69
2024-02-01T03:32:07.218Z,100495.97
2024-02-01T03:32:41.966Z,100488.97
2024-02-01T03:33:14.963Z,100495.94
2024-02-01T03:33:49.541Z,100487.25
2024-02-01T03:34:22.084Z,100488.13
2024-02-01T03:34:54.342Z,100488.13
2024-02-01T03:35:26.384Z,100494.25
2024-02-01T03:35:59.148Z,100483.78
2024-02-01T03:36:31.857Z,100490.72
2024-02-01T03:37:04.535Z,100489.00
2024-02-01T03:37:36.642Z,100483.75
2024-02-01T03:38:09.500Z,100483.75
2024-02-01T03:38:43.898Z,100486.38
2024-02-01T03:39:24.952Z,100483.75
2024-02-01T03:39:57.085Z,100486.38
2024-02-01T03:40:29.023Z,100476.78
2024-02-01T03:41:00.993Z,100482.03
2024-02-01T03:41:33.726Z,100480.28
2024-02-01T03:42:06.701Z,100482.03
2024-02-01T03:42:38.765Z,100488.13
2024-02-01T03:43:13.559Z,100478.53
2024-02-01T03:43:45.995Z,100482.91
2024-02-01T03:44:18.817Z,100476.81
2024-02-01T03:44:50.828Z,100478.53
2024-02-01T03:45:23.066Z,100477.66
2024-02-01T03:45:56.619Z,100466.31
2024-02-01T03:46:28.568Z,100478.53
2024-02-01T03:47:00.517Z,100470.69
2024-02-01T03:47:32.421Z,100468.09
2024-02-01T03:48:04.889Z,100466.31
2024-02-01T03:48:37.119Z,100457.63
2024-02-01T03:49:10.380Z,100463.72
2024-02-01T03:49:42.505Z,100470.69
2024-02-01T03:50:15.014Z,100462.81
2024-02-01T03:50:47.405Z,100462.84
2024-02-01T03:51:20.373Z,100472.44
2024-02-01T03:51:52.655Z,100469.84
2024-02-01T03:52:24.568Z,100467.22
2024-02-01T03:52:58.350Z,100461.09
2024-02-01T03:53:30.901Z,100461.09
2024-02-01T03:54:07.315Z,100468.94
2024-02-01T03:54:40.724Z,100464.59
2024-02-01T03:55:18.551Z,100460.22
2024-02-01T03:55:50.588Z,100459.34
2024-02-01T03:56:25.420Z,100460.22
2024-02-01T03:56:57.650Z,100459.34
2024-02-01T03:57:29.602Z,100466.34
2024-02-01T03:58:02.053Z,100463.69
2024-02-01T03:58:35.360Z,100464.59
2024-02-01T03:59:12.596Z,100466.31
2024-02-01T03:59:45.163Z,100470.69
2024-02-01T04:00:30.012Z,100470.69
2024-02-01T04:01:03.230Z,100470.72
2024-02-01T04:01:35.477Z,100475.94
2024-02-01T04:02:15.000Z,100461.09
2024-02-01T04:02:47.355Z,100460.22
2024-02-01T04:03:19.562Z,100457.63
2024-02-01T04:03:52.407Z,100469.81
2024-02-01T04:04:24.426Z,100466.34
2024-02-01T04:04:56.429Z,100457.59
2024-02-01T04:05:29.176Z,100461.09
2024-02-01T04:06:02.266Z,100468.97
2024-02-01T04:06:38.030Z,100464.56
2024-02-01T04:07:10.221Z,100481.16
2024-02-01T04:07:42.775Z,100468.94
2024-02-01T04:08:18.835Z,100471.56
2024-02-01T04:08:54.234Z,100470.69
2024-02-01T04:09:26.472Z,100468.94
2024-02-01T04:09:58.334Z,100466.34
2024-02-01T04:10:30.420Z,100468.09
2024-02-01T04:11:02.351Z,100468.06
2024-02-01T04:11:34.910Z,100472.44
2024-02-01T04:12:07.239Z,100463.69
2024-02-01T04:12:39.293Z,100466.34
2024-02-01T04:13:11.204Z,100467.19
2024-02-01T04:13:45.375Z,100455.84
2024-02-01T04:14:17.397Z,100467.22
2024-02-01T04:14:49.282Z,100466.31
2024-02-01T04:15:21.220Z,100464.56
2024-02-01T04:15:53.888Z,100468.94
2024-02-01T04:16:26.219Z,100471.56
2024-02-01T04:17:00.304Z,100459.34
2024-02-01T04:17:32.470Z,100473.31
2024-02-01T04:18:05.775Z,100466.31
2024-02-01T04:18:37.995Z,100473.28
2024-02-01T04:19:11.151Z,100463.69
2024-02-01T04:19:43.344Z,100467.19
2024-02-01T04:20:15.394Z,100467.19
2024-02-01T04:20:47.346Z,100468.94
2024-02-01T04:21:19.366Z,100472.41
2024-02-01T04:21:51.256Z,100459.34
2024-02-01T04:22:23.106Z,100468.94
2024-02-01T04:22:55.232Z,100480.28
2024-02-01T04:23:27.294Z,100466.31
2024-02-01T04:23:59.335Z,100468.09
2024-02-01T04:24:31.214Z,100473.31
2024-02-01T04:25:03.148Z,100476.78
2024-02-01T04:25:35.107Z,100466.34
2024-02-01T04:26:07.200Z,100470.69
2024-02-01T04:26:39.771Z,100467.22
2024-02-01T04:27:11.764Z,100474.19
2024-02-01T04:27:43.658Z,100474.19
2024-02-01T04:28:17.646Z,100475.06
2024-02-01T04:28:53.503Z,100467.22
2024-02-01T04:29:28.459Z,100466.34
2024-02-01T04:30:00.473Z,100467.19
2024-02-01T04:30:34.170Z,100462.88
2024-02-01T04:31:06.362Z,100463.72
2024-02-01T04:31:38.381Z,100466.34
2024-02-01T04:32:11.377Z,100471.56
2024-02-01T04:32:43.418Z,100466.34
2024-02-01T04:33:15.519Z,100467.22
2024-02-01T04:33:48.450Z,100459.38
2024-02-01T04:34:20.511Z,100462.84
2024-02-01T04:34:52.540Z,100471.56
2024-02-01T04:35:24.447Z,100461.09
2024-02-01T04:35:56.490Z,100466.34
2024-02-01T04:36:29.180Z,100470.72
2024-02-01T04:37:01.078Z,100469.84
2024-02-01T04:37:33.823Z,100464.59
2024-02-01T04:38:05.980Z,100460.25
2024-02-01T04:38:38.391Z,100462.00
2024-02-01T04:39:10.382Z,100459.38
2024-02-01T04:39:43.673Z,100458.50
2024-02-01T04:40:18.084Z,100460.25
2024-02-01T04:40:50.038Z,100455.03
2024-02-01T04:41:22.314Z,100462.84
2024-02-01T04:42:05.190Z,100461.13
2024-02-01T04:42:37.220Z,100463.72
2024-02-01T04:43:09.931Z,100455.00
2024-02-01T04:43:44.610Z,100460.25
2024-02-01T04:44:16.566Z,100458.50
2024-02-01T04:44:48.519Z,100462.00
2024-02-01T04:45:20.688Z,100457.63
2024-02-01T04:45:52.785Z,100457.63
2024-02-01T04:46:26.149Z,100463.72
2024-02-01T04:46:58.046Z,100460.25
2024-02-01T04:47:30.061Z,100462.84
2024-02-01T04:48:02.447Z,100467.22
2024-02-01T04:48:37.647Z,100465.47
2024-02-01T04:49:14.321Z,100465.47
2024-02-01T04:49:48.231Z,100459.38
2024-02-01T04:50:20.288Z,100458.50
2024-02-01T04:50:52.299Z,100463.72
2024-02-01T04:51:24.229Z,100460.22
2024-02-01T04:51:56.139Z,100463.72
2024-02-01T04:52:28.631Z,100462.84
2024-02-01T04:53:00.544Z,100461.97
2024-02-01T04:53:34.350Z,100458.47
2024-02-01T04:54:07.807Z,100460.25
2024-02-01T04:54:40.490Z,100466.34
2024-02-01T04:55:12.524Z,100463.72
2024-02-01T04:55:45.321Z,100465.47
2024-02-01T04:56:17.369Z,100468.09
2024-02-01T04:56:49.415Z,100464.59
2024-02-01T04:57:22.266Z,100470.69
2024-02-01T04:57:54.257Z,100467.22
2024-02-01T04:58:26.168Z,100471.56
2024-02-01T04:58:58.101Z,100462.84
2024-02-01T04:59:30.571Z,100462.00
2024-02-01T05:00:02.711Z,100465.47
2024-02-01T05:00:34.850Z,100456.75
2024-02-01T05:01:11.933Z,100463.75
2024-02-01T05:01:45.191Z,100451.53
2024-02-01T05:02:18.015Z,100461.09
2024-02-01T05:02:50.244Z,100473.31
2024-02-01T05:03:27.002Z,100467.22
2024-02-01T05:04:01.369Z,100468.09
2024-02-01T05:04:33.416Z,100467.22
2024-02-01T05:05:05.632Z,100462.00
2024-02-01T05:05:37.828Z,100470.72
2024-02-01T05:06:10.485Z,100468.09
2024-02-01T05:06:42.775Z,100471.59
2024-02-01T05:07:15.009Z,100465.47
2024-02-01T05:07:47.364Z,100464.59
2024-02-01T05:08:19.376Z,100469.81
2024-02-01T05:08:52.446Z,100456.75
2024-02-01T05:09:28.532Z,100462.84
2024-02-01T05:10:00.474Z,100464.59
2024-02-01T05:10:33.524Z,100471.59
2024-02-01T05:11:06.015Z,100466.34
2024-02-01T05:11:37.998Z,100463.72
2024-02-01T05:12:10.411Z,100458.50
2024-02-01T05:12:43.294Z,100465.47
2024-02-01T05:13:15.742Z,100469.84
2024-02-01T05:13:47.976Z,100468.06
2024-02-01T05:14:21.192Z,100460.25
2024-02-01T05:14:53.174Z,100465.47
2024-02-01T05:15:25.191Z,100472.44
2024-02-01T05:15:59.621Z,100464.59
2024-02-01T05:16:31.737Z,100468.97
2024-02-01T05:17:04.168Z,100462.88
2024-02-01T05:17:37.377Z,100463.75
2024-02-01T05:18:10.357Z,100471.56
2024-02-01T05:18:42.778Z,100462.84
2024-02-01T05:19:15.354Z,100460.25
2024-02-01T05:19:47.532Z,100464.59
2024-02-01T05:20:19.537Z,100462.00
2024-02-01T05:20:51.574Z,100465.47
2024-02-01T05:21:23.545Z,100457.66
2024-02-01T05:21:56.605Z,100461.97
2024-02-01T05:22:29.215Z,100468.09
2024-02-01T05:23:01.185Z,100462.84
2024-02-01T05:23:34.993Z,100456.75
2024-02-01T05:24:14.686Z,100460.22
2024-02-01T05:24:46.633Z,100462.00
2024-02-01T05:25:21.927Z,100462.00
2024-02-01T05:25:53.873Z,100462.84
2024-02-01T05:26:25.796Z,100462.88
2024-02-01T05:26:58.521Z,100461.09
2024-02-01T05:27:31.280Z,100460.25
2024-02-01T05:28:11.004Z,100460.22
2024-02-01T05:28:43.121Z,100461.13
2024-02-01T05:29:15.035Z,100455.00
2024-02-01T05:29:51.438Z,100455.88
2024-02-01T05:30:24.554Z,100454.97
2024-02-01T05:30:58.869Z,100456.75
2024-02-01T05:31:30.824Z,100451.50
2024-02-01T05:32:07.469Z,100455.00
2024-02-01T05:32:49.589Z,100451.50
2024-02-01T05:33:22.094Z,100456.75
2024-02-01T05:33:54.531Z,100444.50
2024-02-01T05:34:26.531Z,100450.66
2024-02-01T05:35:01.167Z,100448.00
2024-02-01T05:35:35.534Z,100447.13
2024-02-01T05:36:08.087Z,100450.66
2024-02-01T05:36:40.150Z,100448.00
2024-02-01T05:37:12.064Z,100445.41
2024-02-01T05:37:47.925Z,100444.53
2024-02-01T05:38:25.323Z,100438.44
2024-02-01T05:38:57.235Z,100441.03
2024-02-01T05:39:29.557Z,100444.53
2024-02-01T05:40:01.493Z,100441.94
2024-02-01T05:40:33.965Z,100442.81
2024-02-01T05:41:13.398Z,100441.94
2024-02-01T05:41:45.670Z,100434.06
2024-02-01T05:42:18.149Z,100436.69
2024-02-01T05:42:50.999Z,100441.03
2024-02-01T05:43:23.073Z,100441.91
2024-02-01T05:43:55.234Z,100436.69
2024-02-01T05:44:28.908Z,100440.19
2024-02-01T05:45:00.853Z,100434.94
2024-02-01T05:45:33.255Z,100434.94
2024-02-01T05:46:15.700Z,100433.19
2024-02-01T05:46:49.875Z,100434.06
2024-02-01T05:47:21.920Z,100438.44
2024-02-01T05:47:54.210Z,100441.06
2024-02-01T05:48:26.348Z,100442.78
2024-02-01T05:48:59.539Z,100441.94
2024-02-01T05:49:32.439Z,100443.66
2024-02-01T05:50:05.964Z,100443.69
2024-02-01T05:50:39.230Z,100441.06
2024-02-01T05:51:11.341Z,100441.06
2024-02-01T05:51:43.342Z,100435.81
2024-02-01T05:52:16.205Z,100440.19
2024-02-01T05:52:48.306Z,100439.31
2024-02-01T05:53:20.465Z,100440.19
2024-02-01T05:53:54.103Z,100437.56
2024-02-01T05:54:26.255Z,100430.63
2024-02-01T05:54:58.812Z,100435.84
2024-02-01T05:55:31.483Z,100434.09
2024-02-01T05:56:03.619Z,100438.47
2024-02-01T05:56:35.896Z,100438.44
2024-02-01T05:57:07.925Z,100442.81
2024-02-01T05:57:40.602Z,100433.22
2024-02-01T05:58:12.923Z,100432.34
2024-02-01T05:58:45.126Z,100438.47
2024-02-01T05:59:19.014Z,100434.94
2024-02-01T05:59:51.034Z,100429.72
2024-02-01T06:00:24.762Z,100434.97
2024-02-01T06:00:58.953Z,100420.13
2024-02-01T06:01:32.316Z,100432.34
2024-02-01T06:02:06.703Z,100434.09
2024-02-01T06:02:40.852Z,100429.72
2024-02-01T06:03:12.904Z,100427.09
2024-02-01T06:03:44.938Z,100427.09
2024-02-01T06:04:17.301Z,100428.84
2024-02-01T06:04:49.286Z,100428.84
2024-02-01T06:05:21.871Z,100421.88
2024-02-01T06:05:53.949Z,100428.84
2024-02-01T06:06:26.181Z,100425.38
2024-02-01T06:06:58.172Z,100423.63
2024-02-01T06:07:31.850Z,100421.88
2024-02-01T06:08:04.292Z,100425.38
2024-02-01T06:08:36.261Z,100428.88
2024-02-01T06:09:11.903Z,100427.13
2024-02-01T06:09:44.024Z,100417.50
2024-02-01T06:10:15.968Z,100425.38
2024-02-01T06:10:47.869Z,100427.97
2024-02-01T06:11:19.835Z,100415.78
2024-02-01T06:11:51.797Z,100427.09
2024-02-01T06:12:23.719Z,100419.25
2024-02-01T06:12:55.731Z,100417.53
2024-02-01T06:13:27.629Z,100420.16
2024-02-01T06:13:59.583Z,100421.88
2024-02-01T06:14:32.061Z,100426.25